Share

Atlee, Alberta

10:21 AM MDT on April 24, 2014 (GMT -0600)
Suffield (CYSD) Elev 2526 ft | 50.27 °N, 111.18 °W | Change Station

Current weather conditions updated 21 minutes ago

Partly Cloudy
Partly Cloudy
46 °F
Feels Like 45 °F
N
4
Wind Variable Wind from West
Sunrise 6:11 AM
Sunset 8:34 PM
Moon Waning Crescent

Today is forecast to be Much Warmer than yesterday. A few showers developing late tonight.

Pressure 29.76 in
Visibility 25.0 miles
Clouds Few 2500 ft
Few 12000 ft
Windchill 45 °F
Dew Point 36 °F
Humidity 66%
Rainfall 0.00 in
Snow Depth Not available.
UV 4 out of 16
Pollen Not available.
Air Quality Not available.
Flu Activity Not available.
METAR CYSD 241600Z 28003KT 25SM FEW025 FEW120 08/02 A2971 RMK CU1AC1 SLP077

More Conditions Fewer Conditions

Pressure 29.76 in
Visibility 25.0 miles
Clouds Few 2500 ft
Few 12000 ft
Windchill 45 °F
Dew Point 36 °F
Humidity 66%
Rainfall 0.00 in
Snow Depth Not available.
UV 4 out of 16
Pollen Not available.
Air Quality Not available.
Flu Activity Not available.
METAR CYSD 241600Z 28003KT 25SM FEW025 FEW120 08/02 A2971 RMK CU1AC1 SLP077

More Conditions Fewer Conditions

10-Day Weather Forecast

Almanac

Astronomy

Apr. 24, 2014 Rise Set
Actual Time 6:11 AM MDT 8:34 PM MDT
Civil Twilight 5:34 AM MDT 9:10 PM MDT
Nautical Twilight 4:49 AM MDT 9:56 PM MDT
Astronomical Twilight 3:56 AM MDT 10:50 PM MDT
Moon 3:57 AM MDT 3:23 PM MDT
Length of Visible Light 15h 35m
Length of Day
14h 23m
Tomorrow will be 3m 34s longer.
Waning Crescent, 24% of the Moon is Illuminated
Today
Waning Crescent
Apr 29
New
May 6
First Quarter
May 14
Full
May 21
Last Quarter

Today's Extremes

Country Highs Country Lows

Community

  • Sunset at Apalachicola Bay, Florida
    Sunset at Apalachicola Bay, Florida
  • Clouds mov'n in
    Clouds mov'n in
  • Stacked
    Stacked
  • clouds approaching Red Sox Nation
    clouds approaching Red Sox Nation
  • Balance
    Balance

WunderPhotos

Upload Photos

1,704,657 photos uploaded!

Nearby

Snow Depth

Not available.

Coastal Water Temperatures

Place Temperature
No Stations Reporting

Earthquake Activity

City Distance Mag. Time & Date
No recent earthquake activity has been reported nearby.
Minimum magnitude displayed is 2.5.

Nearby Weather Stations

There are no personal weather stations in this area.

What do you think?

We're not finished. Please let us know what you like, what you don't like, and what you are still missing.